Latest Weather Observations for Geelong Racecourse

IDV60901

Issued at 9:25 pm EDT Friday 24 October 2014 (issued every 10 minutes, with the page automatically refreshed every 10 minutes)

About weather observations | Map of Melbourne area stations | Latest observations for Melbourne area | Other Formats
Station Details ID: 087184 Name: GEELONG RACECOURSE Lat: -38.17 Lon: 144.38 Height: 12.9 m
Data from the previous 72 hours. | See also: Recent months at Geelong Racecourse
Date/Time
EDT
Tmp

°C
App
Tmp
°C
Dew
Point
°C
Rel
Hum
%
Delta-T

°C
Wind Press
QNH
hPa
Press
MSL
hPa
Rain
since
9 am
mm
Dir
 
Spd
km/h
Gust
km/h
Spd
kts
Gust
kts
24/09:00pm 15.8 13.6 14.5 92 0.7 W 19 26 10 14 1014.4 1014.4 0.0
24/08:30pm 15.1 15.2 13.8 92 0.7 SSE 6 9 3 5 1013.7 1013.7 0.0
24/08:00pm 15.6 14.5 14.3 92 0.7 S 13 17 7 9 1012.9 1012.9 0.0
24/07:30pm 16.1 14.5 15.0 93 0.6 S 17 22 9 12 1012.4 1012.4 0.0
24/07:00pm 16.0 14.0 14.9 93 0.6 S 19 26 10 14 1011.7 1011.7 0.0
24/06:30pm 17.1 14.1 14.9 87 1.3 S 24 32 13 17 1011.3 1011.3 0.0
24/06:00pm 20.0 17.2 14.4 70 3.3 S 22 28 12 15 1010.7 1010.7 0.0
24/05:30pm 20.6 18.4 14.3 67 3.7 S 19 26 10 14 1010.4 1010.4 0.0
24/05:00pm 21.1 18.7 14.3 65 4.0 S 20 26 11 14 1010.1 1010.1 0.0
24/04:30pm 22.7 19.6 14.5 60 4.8 S 24 32 13 17 1009.8 1009.8 0.0
24/04:21pm 24.6 22.2 14.4 53 6.0 SSE 20 28 11 15 1009.6 1009.6 0.0
24/04:00pm 29.9 26.9 10.5 30 11.1 WSW 17 28 9 15 1009.5 1009.5 0.0
24/03:30pm 29.4 26.5 11.0 32 10.5 W 17 28 9 15 1009.7 1009.7 0.0
24/03:00pm 29.2 26.1 11.7 34 10.1 W 19 33 10 18 1009.9 1009.9 0.0
24/02:30pm 29.3 25.9 11.4 33 10.3 W 20 30 11 16 1010.1 1010.1 0.0
24/02:00pm 28.6 25.4 11.2 34 10.0 W 19 26 10 14 1010.3 1010.3 0.0
24/01:30pm 27.6 25.5 12.4 39 8.8 W 15 24 8 13 1010.6 1010.6 0.0
24/01:00pm 27.4 25.0 12.6 40 8.6 WNW 17 24 9 13 1010.6 1010.6 0.0
24/12:30pm 26.4 24.0 12.8 43 7.9 NW 17 28 9 15 1010.8 1010.8 0.0
24/12:00pm 25.9 24.2 13.7 47 7.2 WNW 15 22 8 12 1011.0 1011.0 0.0
24/11:30am 24.5 23.3 15.1 55 5.6 NW 15 22 8 12 1011.4 1011.4 0.0
24/11:00am 21.8 23.0 15.9 69 3.5 N 4 9 2 5 1011.7 1011.7 0.0
24/10:30am 19.3 20.3 16.3 83 1.8 N 6 9 3 5 1011.7 1011.7 0.0
24/10:00am 17.6 18.7 16.5 93 0.7 NNE 6 7 3 4 1011.9 1011.9 0.0
24/09:30am 15.8 16.2 14.8 94 0.6 NNE 6 9 3 5 1011.8 1011.8 0.0
24/09:00am 15.4 15.7 14.4 94 0.6 NE 6 9 3 5 1011.9 1011.9 0.0
24/08:30am 15.0 15.1 14.0 94 0.6 NE 6 9 3 5 1012.3 1012.3 0.0
24/08:00am 14.9 15.4 13.9 94 0.6 NE 4 6 2 3 1012.4 1012.4 0.0
24/07:30am 14.7 15.1 13.7 94 0.6 SE 4 6 2 3 1012.2 1012.2 0.0
24/07:00am 13.1 13.0 12.2 94 0.5 S 4 6 2 3 1012.3 1012.3 0.0
24/06:30am 13.2 13.2 12.3 94 0.5 S 4 4 2 2 1012.3 1012.3 0.0
24/06:00am 14.1 13.9 13.1 94 0.6 S 6 7 3 4 1012.2 1012.2 0.0
24/05:30am 14.3 14.2 13.2 93 0.6 S 6 7 3 4 1012.4 1012.4 0.0
24/05:00am 15.0 15.5 13.9 93 0.6 SSE 4 6 2 3 1012.4 1012.4 0.0
24/04:30am 15.2 15.4 14.1 93 0.6 S 6 7 3 4 1012.6 1012.6 0.0
24/04:00am 15.3 15.3 14.2 93 0.6 S 7 11 4 6 1012.8 1012.8 0.0
24/03:30am 15.5 15.6 14.4 93 0.6 SSE 7 11 4 6 1013.0 1013.0 0.0
24/03:00am 15.8 15.2 14.5 92 0.7 SE 11 17 6 9 1013.2 1013.2 0.0
24/02:30am 16.0 14.7 14.7 92 0.7 SE 15 22 8 12 1013.4 1013.4 0.0
24/02:00am 16.2 15.7 14.9 92 0.7 SE 11 19 6 10 1014.1 1014.1 0.0
24/01:30am 16.2 15.7 14.9 92 0.7 SE 11 17 6 9 1014.7 1014.7 0.0
24/01:00am 15.7 15.8 14.4 92 0.7 SSE 7 11 4 6 1015.2 1015.2 0.0
24/12:30am 16.3 16.2 15.0 92 0.7 SE 9 24 5 13 1015.4 1015.4 0.0
24/12:00am 15.4 15.4 14.1 92 0.7 S 7 11 4 6 1015.6 1015.6 0.0
 
Date/Time
EDT
Tmp

°C
App
Tmp
°C
Dew
Point
°C
Rel
Hum
%
Delta-T

°C
Wind Press
QNH
hPa
Press
MSL
hPa
Rain
since
9 am
mm
Dir
 
Spd
km/h
Gust
km/h
Spd
kts
Gust
kts
23/11:30pm 15.4 15.0 14.1 92 0.7 S 9 13 5 7 1016.1 1016.1 0.0
23/11:00pm 15.6 15.3 14.3 92 0.7 S 9 15 5 8 1016.5 1016.5 0.0
23/10:30pm 16.1 15.8 14.5 90 0.9 SSE 9 13 5 7 1016.6 1016.6 0.0
23/10:00pm 16.5 15.6 13.8 84 1.5 SE 11 17 6 9 1016.8 1016.8 0.0
23/09:30pm 16.7 16.3 14.2 85 1.4 SSE 9 17 5 9 1016.8 1016.8 0.0
23/09:00pm 17.2 16.0 14.1 82 1.8 ESE 13 24 7 13 1016.8 1016.8 0.0
23/08:30pm 16.2 16.1 14.9 92 0.7 S 9 13 5 7 1016.5 1016.5 0.0
23/08:00pm 16.4 15.9 14.9 91 0.9 SSE 11 15 6 8 1016.4 1016.4 0.0
23/07:30pm 17.0 16.4 14.5 85 1.4 SSE 11 19 6 10 1016.4 1016.4 0.0
23/07:00pm 17.1 15.7 14.6 85 1.4 SE 15 22 8 12 1016.3 1016.3 0.0
23/06:30pm 17.1 15.4 14.6 85 1.4 SSE 17 22 9 12 1016.4 1016.4 0.0
23/06:00pm 17.2 15.5 14.7 85 1.4 SSE 17 26 9 14 1016.4 1016.4 0.0
23/05:30pm 17.2 16.1 15.4 89 1.1 S 15 22 8 12 1016.7 1016.7 0.0
23/05:00pm 16.6 15.1 15.3 92 0.8 S 17 22 9 12 1016.8 1016.8 0.0
23/04:30pm 16.3 14.9 14.5 89 1.0 SSE 15 20 8 11 1017.0 1017.0 0.0
23/04:00pm 16.3 14.3 13.8 85 1.4 S 17 24 9 13 1017.3 1017.3 0.0
23/03:30pm 16.4 14.5 13.1 81 1.8 S 15 20 8 11 1017.8 1017.8 0.0
23/03:00pm 16.8 15.6 12.9 78 2.2 SSE 11 17 6 9 1017.9 1017.9 0.0
23/02:30pm 16.1 14.6 13.0 82 1.7 SSE 13 19 7 10 1018.4 1018.4 0.0
23/02:00pm 16.0 14.8 12.7 81 1.8 SSE 11 19 6 10 1018.8 1018.8 0.0
23/01:30pm 15.8 14.5 12.4 80 1.9 SE 11 19 6 10 1019.0 1019.0 0.0
23/01:00pm 15.6 13.9 12.5 82 1.7 SSE 13 20 7 11 1019.2 1019.2 0.0
23/12:30pm 15.6 13.9 12.5 82 1.7 S 13 19 7 10 1019.6 1019.6 0.0
23/12:00pm 15.7 13.8 11.9 78 2.1 SSE 13 19 7 10 1020.0 1020.0 0.0
23/11:30am 15.2 13.5 12.5 84 1.5 S 13 20 7 11 1020.2 1020.2 0.0
23/11:00am 14.9 13.3 12.9 88 1.1 S 13 19 7 10 1020.3 1020.3 0.0
23/10:30am 14.8 13.2 12.8 88 1.1 SSE 13 17 7 9 1020.5 1020.5 0.0
23/10:00am 15.0 14.0 13.5 91 0.8 S 11 17 6 9 1020.8 1020.8 0.0
23/09:30am 14.7 13.6 13.2 91 0.8 S 11 17 6 9 1020.7 1020.7 0.0
23/09:00am 14.5 13.3 12.9 90 0.9 SSE 11 19 6 10 1020.7 1020.7 0.2
23/08:30am 14.2 12.6 12.9 92 0.7 S 13 20 7 11 1020.5 1020.5 0.2
23/08:00am 13.9 12.6 12.6 92 0.7 S 11 15 6 8 1020.6 1020.6 0.2
23/07:30am 13.9 12.6 12.6 92 0.7 S 11 17 6 9 1020.5 1020.5 0.2
23/07:00am 14.0 12.1 12.9 93 0.6 S 15 22 8 12 1020.1 1020.1 0.2
23/06:30am 14.1 12.2 13.0 93 0.6 S 15 19 8 10 1019.9 1019.9 0.2
23/06:00am 14.2 12.7 13.1 93 0.6 S 13 17 7 9 1019.4 1019.4 0.2
23/05:30am 14.4 11.8 13.3 93 0.6 SSW 19 26 10 14 1019.0 1019.0 0.2
23/05:00am 14.3 12.8 13.2 93 0.6 SSW 13 17 7 9 1019.0 1019.0 0.2
23/04:30am 14.4 13.0 13.3 93 0.6 S 13 19 7 10 1019.0 1019.0 0.2
23/04:00am 14.5 12.7 13.4 93 0.6 SSW 15 20 8 11 1019.1 1019.1 0.2
23/03:30am 14.6 13.2 13.5 93 0.6 SSW 13 19 7 10 1019.1 1019.1 0.2
23/03:00am 14.6 12.9 13.5 93 0.6 SSW 15 20 8 11 1019.1 1019.1 0.2
23/02:30am 14.5 13.1 13.4 93 0.6 SSW 13 19 7 10 1019.2 1019.2 0.2
23/02:00am 14.4 12.6 13.3 93 0.6 SSW 15 20 8 11 1019.1 1019.1 0.2
23/01:30am 14.5 12.7 13.4 93 0.6 SSW 15 22 8 12 1019.3 1019.3 0.2
23/01:00am 14.5 13.1 13.4 93 0.6 SW 13 19 7 10 1019.6 1019.6 0.2
23/12:30am 14.2 12.3 13.1 93 0.6 SW 15 20 8 11 1019.3 1019.3 0.2
23/12:00am 14.3 12.1 13.2 93 0.6 SW 17 20 9 11 1019.0 1019.0 0.2
 
Date/Time
EDT
Tmp

°C
App
Tmp
°C
Dew
Point
°C
Rel
Hum
%
Delta-T

°C
Wind Press
QNH
hPa
Press
MSL
hPa
Rain
since
9 am
mm
Dir
 
Spd
km/h
Gust
km/h
Spd
kts
Gust
kts
22/11:30pm 14.7 13.8 13.6 93 0.6 SSW 11 17 6 9 1019.2 1019.2 0.2
22/11:28pm 14.7 13.4 13.6 93 0.6 SSW 13 17 7 9 1019.2 1019.2 0.2
22/11:00pm 15.0 13.4 13.9 93 0.6 SSE 15 20 8 11 1017.2 1017.2 0.0
22/10:30pm 15.6 13.2 14.3 92 0.7 SSW 20 26 11 14 1018.9 1018.9 0.0
22/10:00pm 15.9 14.2 14.6 92 0.7 SSW 17 20 9 11 1018.9 1018.9 0.0
22/09:30pm 16.5 14.9 13.8 84 1.5 SSW 15 19 8 10 1018.5 1018.5 0.0
22/09:00pm 17.1 14.9 13.2 78 2.2 SW 17 26 9 14 1018.5 1018.5 0.0
22/08:30pm 18.7 16.1 12.0 65 3.7 S 17 26 9 14 1016.7 1016.7 0.0
22/08:00pm 19.7 16.6 12.2 62 4.2 S 20 28 11 15 1016.0 1016.0 0.0
22/07:30pm 22.0 19.1 11.1 50 6.0 SSW 17 24 9 13 1015.5 1015.5 0.0
22/07:00pm 23.8 19.6 11.2 45 7.0 S 24 33 13 18 1015.2 1015.2 0.0
22/06:30pm 26.0 21.5 10.2 37 8.8 S 24 32 13 17 1014.6 1014.6 0.0
22/06:00pm 28.0 24.7 11.5 35 9.5 SSW 20 28 11 15 1014.6 1014.6 0.0
22/05:30pm 30.2 29.4 11.2 31 11.0 E 6 9 3 5 1014.0 1014.0 0.0
22/05:00pm 30.3 28.9 10.8 30 11.2 ENE 9 13 5 7 1014.1 1014.1 0.0
22/04:30pm 31.0 29.5 11.9 31 11.2 NE 11 19 6 10 1014.1 1014.1 0.0
22/04:00pm 29.6 28.8 12.9 35 9.9 NE 9 17 5 9 1014.2 1014.2 0.0
22/03:30pm 28.7 27.6 13.0 38 9.3 NE 11 15 6 8 1014.7 1014.7 0.0
22/03:00pm 28.6 27.3 12.5 37 9.4 NE 11 17 6 9 1015.0 1015.0 0.0
22/02:30pm 28.6 26.8 12.1 36 9.6 ENE 13 22 7 12 1015.2 1015.2 0.0
22/02:00pm 30.0 27.9 12.4 34 10.3 ENE 15 22 8 12 1015.5 1015.5 0.0
22/01:30pm 27.7 25.5 12.1 38 9.0 ENE 15 20 8 11 1015.9 1015.9 0.0
22/01:00pm 27.8 26.0 12.2 38 9.0 ENE 13 19 7 10 1016.2 1016.2 0.0
22/12:30pm 28.0 26.4 11.5 35 9.5 ENE 11 19 6 10 1016.8 1016.8 0.0
22/12:00pm 26.9 25.3 11.4 38 8.8 ENE 11 15 6 8 1017.1 1017.1 0.0
22/11:30am 26.3 25.5 11.2 38 8.6 ENE 6 13 3 7 1017.7 1017.7 0.0
22/11:00am 26.4 25.8 11.7 40 8.4 NE 6 9 3 5 1018.2 1018.2 0.0
22/10:30am 24.3 23.7 12.3 47 6.9 NE 7 11 4 6 1018.4 1018.4 0.0
22/10:00am 23.0 22.8 12.9 53 5.8 NE 6 7 3 4 1018.7 1018.7 0.0
22/09:30am 21.5 20.9 12.4 56 5.1 NNE 7 13 4 7 1018.9 1018.9 0.0
22/09:00am 20.1 18.7 13.3 65 3.9 NNE 13 19 7 10 1018.6 1018.6 0.0
22/08:30am 18.6 17.8 13.9 74 2.7 NNE 11 17 6 9 1018.3 1018.3 0.0
22/08:00am 15.9 16.0 14.4 91 0.9 NNE 7 9 4 5 1018.6 1018.6 0.0
22/07:30am 14.4 14.3 13.3 93 0.6 N 6 7 3 4 1018.6 1018.6 0.0
22/07:00am 12.9 12.4 12.0 94 0.5 N 6 7 3 4 1018.6 1018.6 0.0
22/06:30am 12.4 11.7 11.5 94 0.5 N 6 7 3 4 1018.8 1018.8 0.0
22/06:00am 10.6 9.8 9.7 94 0.5 N 4 6 2 3 1018.9 1018.9 0.0
22/05:30am 11.3 10.7 10.4 94 0.5 N 4 4 2 2 1018.7 1018.7 0.0
22/05:00am 10.2 9.7 9.3 94 0.4 N 2 4 1 2 1018.8 1018.8 0.0
22/04:30am 10.2 10.1 9.3 94 0.4 CALM 0 0 0 0 1018.9 1018.9 0.0
22/04:00am 10.7 10.7 9.8 94 0.5 CALM 0 0 0 0 1019.1 1019.1 0.0
22/03:30am 10.7 10.6 9.6 93 0.6 CALM 0 0 0 0 1019.3 1019.3 0.0
22/03:00am 10.9 10.9 9.8 93 0.6 CALM 0 0 0 0 1019.7 1019.7 0.0
22/02:30am 11.5 11.7 10.4 93 0.6 CALM 0 0 0 0 1020.2 1020.2 0.0
22/02:00am 12.1 12.4 11.0 93 0.6 CALM 0 0 0 0 1020.6 1020.6 0.0
22/01:30am 11.6 11.8 10.5 93 0.6 CALM 0 0 0 0 1020.8 1020.8 0.0
22/01:00am 12.6 13.1 11.5 93 0.6 CALM 0 0 0 0 1021.2 1021.2 0.0
22/12:30am 12.5 12.9 11.4 93 0.6 CALM 0 0 0 0 1021.6 1021.6 0.0
22/12:00am 13.8 14.6 12.5 92 0.7 CALM 0 0 0 0 1022.0 1022.0 0.0
 
Date/Time
EDT
Tmp

°C
App
Tmp
°C
Dew
Point
°C
Rel
Hum
%
Delta-T

°C
Wind Press
QNH
hPa
Press
MSL
hPa
Rain
since
9 am
mm
Dir
 
Spd
km/h
Gust
km/h
Spd
kts
Gust
kts
21/11:30pm 14.1 14.6 12.8 92 0.7 WSW 2 6 1 3 1022.4 1022.4 0.0
21/11:00pm 14.4 15.4 13.1 92 0.7 CALM 0 0 0 0 1022.7 1022.7 0.0
21/10:30pm 14.8 15.9 13.5 92 0.7 CALM 0 0 0 0 1022.9 1022.9 0.0
21/10:00pm 15.3 16.1 13.8 91 0.8 SW 2 4 1 2 1023.0 1023.0 0.0
21/09:30pm 15.7 15.8 13.9 89 1.0 SW 6 7 3 4 1023.1 1023.1 0.0

Latest Capital City Observations: Canberra | Sydney | Melbourne | Brisbane | Adelaide | Perth | Hobart | Darwin

Other Formats:

Comma delimited format used in spreadsheet applications
http://www.bom.gov.au/fwo/IDV60901/IDV60901.94857.axf

JavaScript Object Notation format (JSON) in row-major order
http://www.bom.gov.au/fwo/IDV60901/IDV60901.94857.json